<?xml version="1.0" encoding="UTF-8" standalone="no" ?>
<gpx xmlns="http://www.topografix.com/GPX/1/1" xmlns:xsi="http://www.w3.org/2001/XMLSchema-instance" xsi:schemaLocation="http://www.topografix.com/GPX/1/1 http://www.topografix.com/GPX/1/1/gpx.xsd" version="1.1" creator="VisuGPX - https://www.visugpx.com">
  <metadata>
    <name>Prospection chemins praticables 1</name>
  </metadata>
  <trk>
    <name><![CDATA[Tracé actuel: 25 AOU 2021 11:08]]></name>
    <extensions>
      <line xmlns="http://www.topografix.com/GPX/gpx_style/0/2">
        <color>0000FF</color>
        <width>4</width>
      </line>
    </extensions>
    <trkseg>
      <trkpt lat="47.70787" lon="5.11197">
        <ele>401.84</ele>
        <time>2021-08-25T09:08:20Z</time>
      </trkpt>
      <trkpt lat="47.70787" lon="5.11197">
        <ele>401.84</ele>
        <time>2021-08-25T09:08:21Z</time>
      </trkpt>
      <trkpt lat="47.70788" lon="5.11198">
        <ele>400.53</ele>
        <time>2021-08-25T09:08:25Z</time>
      </trkpt>
      <trkpt lat="47.70789" lon="5.11197">
        <ele>400.98</ele>
        <time>2021-08-25T09:08:54Z</time>
      </trkpt>
      <trkpt lat="47.70792" lon="5.11197">
        <ele>400.82</ele>
        <time>2021-08-25T09:09:28Z</time>
      </trkpt>
      <trkpt lat="47.7079" lon="5.11197">
        <ele>400.62</ele>
        <time>2021-08-25T09:09:55Z</time>
      </trkpt>
      <trkpt lat="47.70789" lon="5.11197">
        <ele>400.45</ele>
        <time>2021-08-25T09:10:23Z</time>
      </trkpt>
      <trkpt lat="47.70788" lon="5.11197">
        <ele>401.11</ele>
        <time>2021-08-25T09:10:57Z</time>
      </trkpt>
      <trkpt lat="47.70788" lon="5.11197">
        <ele>401.46</ele>
        <time>2021-08-25T09:11:29Z</time>
      </trkpt>
      <trkpt lat="47.70786" lon="5.11197">
        <ele>401.22</ele>
        <time>2021-08-25T09:11:55Z</time>
      </trkpt>
      <trkpt lat="47.70786" lon="5.11197">
        <ele>401.21</ele>
        <time>2021-08-25T09:12:17Z</time>
      </trkpt>
      <trkpt lat="47.70786" lon="5.11197">
        <ele>400.03</ele>
        <time>2021-08-25T09:12:31Z</time>
      </trkpt>
      <trkpt lat="47.70787" lon="5.11197">
        <ele>401.62</ele>
        <time>2021-08-25T09:13:02Z</time>
      </trkpt>
      <trkpt lat="47.70783" lon="5.11195">
        <ele>401.56</ele>
        <time>2021-08-25T09:13:41Z</time>
      </trkpt>
      <trkpt lat="47.70786" lon="5.11196">
        <ele>401.65</ele>
        <time>2021-08-25T09:14:10Z</time>
      </trkpt>
      <trkpt lat="47.70789" lon="5.11197">
        <ele>401.64</ele>
        <time>2021-08-25T09:14:38Z</time>
      </trkpt>
      <trkpt lat="47.70794" lon="5.11199">
        <ele>401.32</ele>
        <time>2021-08-25T09:15:06Z</time>
      </trkpt>
      <trkpt lat="47.70791" lon="5.11198">
        <ele>401.35</ele>
        <time>2021-08-25T09:15:37Z</time>
      </trkpt>
      <trkpt lat="47.70795" lon="5.11199">
        <ele>401.36</ele>
        <time>2021-08-25T09:16:03Z</time>
      </trkpt>
      <trkpt lat="47.70791" lon="5.11198">
        <ele>401.4</ele>
        <time>2021-08-25T09:16:31Z</time>
      </trkpt>
      <trkpt lat="47.70789" lon="5.11197">
        <ele>401.43</ele>
        <time>2021-08-25T09:16:58Z</time>
      </trkpt>
      <trkpt lat="47.70787" lon="5.11197">
        <ele>401.54</ele>
        <time>2021-08-25T09:17:19Z</time>
      </trkpt>
      <trkpt lat="47.70786" lon="5.11197">
        <ele>401.48</ele>
        <time>2021-08-25T09:17:40Z</time>
      </trkpt>
      <trkpt lat="47.70783" lon="5.11196">
        <ele>401.61</ele>
        <time>2021-08-25T09:18:07Z</time>
      </trkpt>
      <trkpt lat="47.7078" lon="5.11195">
        <ele>401.8</ele>
        <time>2021-08-25T09:18:38Z</time>
      </trkpt>
      <trkpt lat="47.70781" lon="5.11196">
        <ele>401.88</ele>
        <time>2021-08-25T09:19:07Z</time>
      </trkpt>
      <trkpt lat="47.70781" lon="5.11196">
        <ele>402.12</ele>
        <time>2021-08-25T09:19:34Z</time>
      </trkpt>
      <trkpt lat="47.70784" lon="5.11196">
        <ele>402.02</ele>
        <time>2021-08-25T09:20:03Z</time>
      </trkpt>
      <trkpt lat="47.70783" lon="5.11195">
        <ele>402.05</ele>
        <time>2021-08-25T09:20:31Z</time>
      </trkpt>
      <trkpt lat="47.70783" lon="5.11195">
        <ele>401.34</ele>
        <time>2021-08-25T09:21:03Z</time>
      </trkpt>
      <trkpt lat="47.70782" lon="5.11194">
        <ele>402.3</ele>
        <time>2021-08-25T09:21:46Z</time>
      </trkpt>
      <trkpt lat="47.70781" lon="5.11194">
        <ele>402.43</ele>
        <time>2021-08-25T09:22:19Z</time>
      </trkpt>
      <trkpt lat="47.70785" lon="5.11196">
        <ele>401.89</ele>
        <time>2021-08-25T09:22:58Z</time>
      </trkpt>
      <trkpt lat="47.70785" lon="5.11196">
        <ele>401.45</ele>
        <time>2021-08-25T09:23:32Z</time>
      </trkpt>
      <trkpt lat="47.70786" lon="5.11196">
        <ele>400.42</ele>
        <time>2021-08-25T09:23:46Z</time>
      </trkpt>
      <trkpt lat="47.70788" lon="5.11196">
        <ele>402.67</ele>
        <time>2021-08-25T09:24:00Z</time>
      </trkpt>
      <trkpt lat="47.70789" lon="5.11197">
        <ele>402.4</ele>
        <time>2021-08-25T09:24:23Z</time>
      </trkpt>
      <trkpt lat="47.70793" lon="5.11198">
        <ele>402.19</ele>
        <time>2021-08-25T09:24:39Z</time>
      </trkpt>
      <trkpt lat="47.70785" lon="5.11184">
        <ele>401.51</ele>
        <time>2021-08-25T09:45:10Z</time>
      </trkpt>
    </trkseg>
  </trk>
</gpx>